Time;durP1;ratioP1;P1;durP2;ratioP2;P2;SDS_P1;SDS_P2;PMS_P1;PMS_P2;Temp;Humidity;BMP_temperature;BMP_pressure;BME280_temperature;BME280_humidity;BME280_pressure;Samples;Min_cycle;Max_cycle;Signal;HPM_P1;HPM_P2
2022/03/18 00:02:22;;;;;;;67.87;45.77;;;;;;;;;;6201843;23;20157;-83
2022/03/18 00:04:48;;;;;;;78.50;50.10;;;;;;;;;;6200172;23;20492;-83
2022/03/18 00:07:15;;;;;;;72.27;47.87;;;;;;;;;;6196362;23;20176;-84
2022/03/18 00:09:41;;;;;;;82.20;50.53;;;;;;;;;;6192008;23;20165;-83
2022/03/18 00:12:08;;;;;;;70.70;46.23;;;;;;;;;;6191812;23;20179;-84
2022/03/18 00:14:34;;;;;;;84.30;51.50;;;;;;;;;;6192122;23;20180;-83
2022/03/18 00:17:00;;;;;;;81.00;51.87;;;;;;;;;;6189580;23;20199;-83
2022/03/18 00:19:28;;;;;;;80.37;52.97;;;;;;;;;;6191546;23;20294;-84
2022/03/18 00:22:01;;;;;;;81.13;51.10;;;;;;;;;;6191563;23;20599;-83
2022/03/18 00:24:27;;;;;;;161.97;85.60;;;;;;;;;;6191620;23;20128;-82
2022/03/18 00:26:53;;;;;;;81.17;51.50;;;;;;;;;;6190579;23;20195;-83
2022/03/18 00:29:19;;;;;;;79.87;52.73;;;;;;;;;;6191300;23;20234;-83
2022/03/18 00:31:45;;;;;;;88.20;54.70;;;;;;;;;;6189735;23;20168;-84
2022/03/18 00:34:11;;;;;;;75.37;49.50;;;;;;;;;;6191350;23;20149;-83
2022/03/18 00:36:37;;;;;;;91.60;58.80;;;;;;;;;;6190989;23;20173;-83
2022/03/18 00:39:04;;;;;;;81.07;53.53;;;;;;;;;;6190965;23;20155;-83
2022/03/18 00:41:30;;;;;;;84.07;52.67;;;;;;;;;;6190819;23;20156;-83
2022/03/18 00:43:56;;;;;;;77.83;50.00;;;;;;;;;;6190767;23;20149;-84
2022/03/18 00:46:24;;;;;;;77.70;50.17;;;;;;;;;;6189338;23;20160;-82
2022/03/18 00:54:20;;;;;;;79.37;50.43;;;;;;;;;;6190899;23;20305;-82
2022/03/18 00:56:46;;;;;;;81.43;52.43;;;;;;;;;;6191021;23;20186;-84
2022/03/18 00:59:12;;;;;;;82.23;51.73;;;;;;;;;;6190836;23;20230;-84
2022/03/18 01:01:38;;;;;;;78.07;51.23;;;;;;;;;;6188391;23;20185;-83
2022/03/18 01:04:04;;;;;;;77.47;49.40;;;;;;;;;;6190596;23;20504;-84
2022/03/18 01:06:31;;;;;;;77.60;50.70;;;;;;;;;;6189964;23;20158;-83
2022/03/18 01:08:57;;;;;;;80.07;50.70;;;;;;;;;;6191320;23;20152;-83
2022/03/18 01:11:23;;;;;;;78.53;49.07;;;;;;;;;;6190866;23;20533;-84
2022/03/18 01:13:49;;;;;;;79.90;49.03;;;;;;;;;;6191707;23;20193;-83
2022/03/18 01:16:15;;;;;;;75.23;49.87;;;;;;;;;;6189145;23;20163;-84
2022/03/18 01:18:41;;;;;;;73.63;48.67;;;;;;;;;;6190464;23;20173;-83
2022/03/18 01:21:07;;;;;;;72.90;48.60;;;;;;;;;;6190222;23;20156;-83
2022/03/18 01:23:33;;;;;;;74.57;48.30;;;;;;;;;;6190867;23;20149;-83
2022/03/18 01:25:59;;;;;;;75.33;49.27;;;;;;;;;;6191151;23;20157;-82
2022/03/18 01:28:27;;;;;;;75.87;48.27;;;;;;;;;;6192475;23;20235;-83
2022/03/18 01:30:54;;;;;;;70.40;48.10;;;;;;;;;;6192965;23;20148;-83
2022/03/18 01:33:20;;;;;;;72.93;47.20;;;;;;;;;;6192420;23;20588;-83
2022/03/18 01:35:46;;;;;;;73.20;47.60;;;;;;;;;;6192021;23;20162;-84
2022/03/18 01:38:12;;;;;;;77.93;49.60;;;;;;;;;;6192520;23;20196;-84
2022/03/18 01:40:38;;;;;;;77.67;48.90;;;;;;;;;;6193357;23;20149;-84
2022/03/18 01:43:07;;;;;;;72.83;47.73;;;;;;;;;;6192824;23;20145;-84
2022/03/18 01:45:33;;;;;;;76.87;50.03;;;;;;;;;;6192450;23;20593;-84
2022/03/18 01:47:59;;;;;;;75.47;48.10;;;;;;;;;;6192286;23;20189;-84
2022/03/18 01:50:25;;;;;;;76.47;50.10;;;;;;;;;;6192094;23;20164;-84
2022/03/18 01:52:51;;;;;;;73.70;48.37;;;;;;;;;;6189042;23;20156;-83
2022/03/18 01:55:19;;;;;;;76.03;48.77;;;;;;;;;;6191167;23;20162;-82
2022/03/18 01:57:45;;;;;;;79.07;48.47;;;;;;;;;;6192087;23;20241;-84
2022/03/18 02:00:11;;;;;;;76.33;48.53;;;;;;;;;;6190022;23;20155;-84
2022/03/18 02:02:38;;;;;;;73.90;47.10;;;;;;;;;;6191302;23;20154;-84
2022/03/18 02:05:05;;;;;;;75.37;47.17;;;;;;;;;;6191973;23;20148;-83
2022/03/18 02:07:31;;;;;;;77.70;47.53;;;;;;;;;;6192314;23;20184;-84
2022/03/18 02:09:57;;;;;;;72.33;46.57;;;;;;;;;;6191952;23;20202;-84
2022/03/18 02:12:23;;;;;;;69.83;46.50;;;;;;;;;;6190812;23;20157;-84
2022/03/18 02:14:49;;;;;;;73.33;47.17;;;;;;;;;;6192577;23;20247;-82
2022/03/18 02:17:16;;;;;;;70.23;45.23;;;;;;;;;;6189938;23;20193;-82
2022/03/18 02:19:45;;;;;;;71.23;47.43;;;;;;;;;;6192849;23;20145;-82
2022/03/18 02:22:12;;;;;;;74.20;47.27;;;;;;;;;;6192380;23;20214;-83
2022/03/18 02:24:41;;;;;;;70.13;44.73;;;;;;;;;;6192235;23;20527;-83
2022/03/18 02:27:08;;;;;;;66.27;45.57;;;;;;;;;;6191062;23;20176;-82
2022/03/18 02:29:34;;;;;;;66.13;44.67;;;;;;;;;;6190436;23;20148;-83
2022/03/18 02:32:01;;;;;;;69.37;44.83;;;;;;;;;;6191480;23;20174;-83
2022/03/18 02:34:28;;;;;;;68.13;44.57;;;;;;;;;;6191998;23;20178;-82
2022/03/18 02:36:54;;;;;;;68.23;42.73;;;;;;;;;;6190643;23;20210;-84
2022/03/18 02:39:20;;;;;;;65.27;43.67;;;;;;;;;;6191530;23;20222;-84
2022/03/18 02:41:46;;;;;;;63.17;43.00;;;;;;;;;;6190104;23;20533;-83
2022/03/18 02:44:12;;;;;;;65.97;43.17;;;;;;;;;;6191945;23;20146;-84
2022/03/18 02:46:38;;;;;;;66.63;43.33;;;;;;;;;;6191845;23;20173;-83
2022/03/18 02:49:05;;;;;;;68.73;44.90;;;;;;;;;;6190833;23;20159;-83
2022/03/18 02:51:31;;;;;;;64.60;42.40;;;;;;;;;;6191855;23;20546;-83
2022/03/18 02:53:57;;;;;;;65.97;43.30;;;;;;;;;;6191073;23;20619;-84
2022/03/18 02:56:24;;;;;;;64.70;44.13;;;;;;;;;;6191492;23;20156;-83
2022/03/18 02:58:50;;;;;;;66.90;44.37;;;;;;;;;;6190945;23;20599;-84
2022/03/18 03:01:16;;;;;;;71.93;46.03;;;;;;;;;;6188058;23;20549;-83
2022/03/18 03:03:42;;;;;;;66.40;44.17;;;;;;;;;;6188588;23;20147;-83
2022/03/18 03:08:53;;;;;;;73.83;45.70;;;;;;;;;;6189834;23;20605;-83
2022/03/18 03:11:22;;;;;;;73.80;46.07;;;;;;;;;;6190105;23;20157;-83
2022/03/18 03:13:48;;;;;;;73.70;46.67;;;;;;;;;;6192524;23;20613;-82
2022/03/18 03:16:14;;;;;;;68.47;45.37;;;;;;;;;;6191714;23;20179;-84
2022/03/18 03:18:40;;;;;;;71.77;45.70;;;;;;;;;;6190551;23;20167;-83
2022/03/18 03:21:06;;;;;;;74.37;46.93;;;;;;;;;;6192136;23;20149;-83
2022/03/18 03:23:32;;;;;;;67.80;45.97;;;;;;;;;;6193290;23;20152;-83
2022/03/18 03:25:58;;;;;;;69.50;46.03;;;;;;;;;;6192328;23;20608;-82
2022/03/18 03:28:24;;;;;;;68.40;43.53;;;;;;;;;;6193089;23;20558;-84
2022/03/18 03:30:50;;;;;;;67.13;45.63;;;;;;;;;;6192469;23;20165;-84
2022/03/18 03:33:17;;;;;;;66.30;44.13;;;;;;;;;;6192585;23;20149;-84
2022/03/18 03:35:43;;;;;;;66.47;44.03;;;;;;;;;;6191801;23;20488;-84
2022/03/18 03:38:10;;;;;;;62.87;41.70;;;;;;;;;;6191653;23;20195;-84
2022/03/18 03:40:37;;;;;;;62.17;40.17;;;;;;;;;;6191275;23;20146;-84
2022/03/18 03:43:04;;;;;;;60.33;40.53;;;;;;;;;;6190031;23;20158;-84
2022/03/18 03:45:30;;;;;;;59.73;41.73;;;;;;;;;;6191596;23;20151;-85
2022/03/18 03:47:55;;;;;;;66.20;42.87;;;;;;;;;;6191664;23;20184;-85
2022/03/18 03:50:22;;;;;;;64.30;42.43;;;;;;;;;;6190322;23;20202;-84
2022/03/18 03:52:47;;;;;;;65.97;42.17;;;;;;;;;;6191390;23;20226;-84
2022/03/18 03:55:14;;;;;;;61.13;39.83;;;;;;;;;;6191996;23;20598;-85
2022/03/18 03:57:40;;;;;;;65.80;40.20;;;;;;;;;;6191425;23;20513;-84
2022/03/18 04:00:10;;;;;;;66.83;41.77;;;;;;;;;;6192178;23;20151;-85
2022/03/18 04:02:40;;;;;;;64.13;40.87;;;;;;;;;;6192835;23;20150;-85
2022/03/18 04:05:09;;;;;;;57.23;39.17;;;;;;;;;;6192077;23;20619;-84
2022/03/18 04:07:36;;;;;;;61.97;40.60;;;;;;;;;;6191513;23;20260;-84
2022/03/18 04:10:03;;;;;;;65.43;40.47;;;;;;;;;;6191734;23;20601;-84
2022/03/18 04:12:29;;;;;;;55.80;38.60;;;;;;;;;;6191847;23;20152;-84
2022/03/18 04:14:55;;;;;;;62.93;40.63;;;;;;;;;;6191046;23;20154;-84
2022/03/18 04:17:22;;;;;;;59.53;39.23;;;;;;;;;;6191120;23;20189;-85
2022/03/18 04:19:48;;;;;;;59.00;39.70;;;;;;;;;;6190654;23;20152;-84
2022/03/18 04:22:14;;;;;;;63.07;39.40;;;;;;;;;;6191948;23;20544;-85
2022/03/18 04:24:40;;;;;;;62.10;40.40;;;;;;;;;;6192464;23;20201;-84
2022/03/18 04:27:07;;;;;;;58.33;37.87;;;;;;;;;;6192026;23;20175;-84
2022/03/18 04:29:32;;;;;;;59.77;40.17;;;;;;;;;;6192217;23;20488;-85
2022/03/18 04:31:59;;;;;;;62.20;41.23;;;;;;;;;;6191678;23;20154;-86
2022/03/18 04:34:25;;;;;;;60.40;41.13;;;;;;;;;;6192124;23;20169;-84
2022/03/18 04:36:51;;;;;;;58.57;39.80;;;;;;;;;;6191773;23;20218;-85
2022/03/18 04:39:17;;;;;;;61.90;41.00;;;;;;;;;;6192394;23;20152;-84
2022/03/18 04:41:43;;;;;;;64.40;41.53;;;;;;;;;;6196482;23;20128;-84
2022/03/18 04:44:09;;;;;;;56.23;37.30;;;;;;;;;;6203477;23;20198;-85
2022/03/18 04:46:35;;;;;;;61.50;39.10;;;;;;;;;;6201083;23;20167;-84
2022/03/18 04:49:01;;;;;;;56.07;38.47;;;;;;;;;;6193924;23;20167;-84
2022/03/18 04:51:27;;;;;;;59.83;39.43;;;;;;;;;;6192775;23;20221;-84
2022/03/18 04:53:53;;;;;;;58.10;38.57;;;;;;;;;;6192914;23;20155;-84
2022/03/18 04:59:04;;;;;;;58.47;38.40;;;;;;;;;;6192919;23;20162;-84
2022/03/18 05:01:31;;;;;;;55.50;37.70;;;;;;;;;;6193129;23;20533;-85
2022/03/18 05:03:57;;;;;;;58.77;39.47;;;;;;;;;;6193584;23;20156;-85
2022/03/18 05:06:23;;;;;;;62.40;38.57;;;;;;;;;;6194067;23;20639;-85
2022/03/18 05:08:49;;;;;;;53.00;37.20;;;;;;;;;;6193425;23;20159;-84
2022/03/18 05:11:15;;;;;;;63.53;39.80;;;;;;;;;;6191308;23;20156;-84
2022/03/18 05:13:42;;;;;;;59.03;38.53;;;;;;;;;;6195144;23;20473;-85
2022/03/18 05:16:08;;;;;;;61.17;40.47;;;;;;;;;;6191416;23;20157;-85
2022/03/18 05:18:34;;;;;;;57.80;38.77;;;;;;;;;;6193850;23;20568;-84
2022/03/18 05:21:00;;;;;;;59.27;39.23;;;;;;;;;;6194176;23;20177;-84
2022/03/18 05:23:26;;;;;;;55.67;37.70;;;;;;;;;;6191843;23;20151;-83
2022/03/18 05:25:52;;;;;;;55.70;37.40;;;;;;;;;;6193198;23;20147;-83
2022/03/18 05:28:18;;;;;;;53.23;36.93;;;;;;;;;;6191944;23;20185;-84
2022/03/18 05:30:44;;;;;;;59.63;37.13;;;;;;;;;;6194472;23;20508;-85
2022/03/18 05:33:10;;;;;;;54.47;37.60;;;;;;;;;;6193197;23;20158;-85
2022/03/18 05:35:36;;;;;;;54.73;36.93;;;;;;;;;;6193257;23;20620;-84
2022/03/18 05:38:02;;;;;;;52.90;36.60;;;;;;;;;;6192687;23;20210;-85
2022/03/18 05:40:28;;;;;;;56.33;37.57;;;;;;;;;;6191296;23;20158;-85
2022/03/18 05:42:54;;;;;;;55.97;37.30;;;;;;;;;;6191419;23;20162;-84
2022/03/18 05:45:22;;;;;;;59.40;38.03;;;;;;;;;;6194051;23;20585;-85
2022/03/18 05:47:49;;;;;;;54.90;37.47;;;;;;;;;;6193086;23;20184;-84
2022/03/18 05:50:16;;;;;;;54.63;37.17;;;;;;;;;;6193239;23;20155;-84
2022/03/18 05:52:45;;;;;;;55.97;37.20;;;;;;;;;;6193745;23;20602;-85
2022/03/18 05:55:11;;;;;;;52.10;36.00;;;;;;;;;;6194139;23;20222;-85
2022/03/18 05:57:37;;;;;;;56.53;36.73;;;;;;;;;;6193694;23;20209;-85
2022/03/18 06:00:04;;;;;;;53.30;36.13;;;;;;;;;;6191137;23;20179;-84
2022/03/18 06:02:30;;;;;;;55.97;37.10;;;;;;;;;;6193523;23;20152;-85
2022/03/18 06:04:56;;;;;;;56.07;38.10;;;;;;;;;;6193218;23;20147;-85
2022/03/18 06:07:22;;;;;;;56.13;37.80;;;;;;;;;;6192874;23;20293;-85
2022/03/18 06:12:32;;;;;;;57.97;37.90;;;;;;;;;;6193525;23;20209;-85
2022/03/18 06:14:58;;;;;;;57.23;38.40;;;;;;;;;;6192358;23;20665;-85
2022/03/18 06:17:24;;;;;;;59.27;39.77;;;;;;;;;;6191681;23;20275;-85
2022/03/18 06:19:50;;;;;;;58.03;39.37;;;;;;;;;;6193921;23;20143;-85
2022/03/18 06:22:16;;;;;;;61.93;40.00;;;;;;;;;;6194627;23;20160;-85
2022/03/18 06:24:42;;;;;;;59.60;39.63;;;;;;;;;;6194293;23;20170;-85
2022/03/18 06:27:09;;;;;;;57.63;39.23;;;;;;;;;;6193687;23;20281;-85
2022/03/18 06:29:37;;;;;;;57.43;39.33;;;;;;;;;;6191475;23;20167;-84
2022/03/18 06:32:03;;;;;;;60.03;40.27;;;;;;;;;;6193401;23;20203;-83
2022/03/18 06:34:29;;;;;;;57.33;39.07;;;;;;;;;;6192675;23;20608;-82
2022/03/18 06:36:57;;;;;;;57.27;39.53;;;;;;;;;;6192152;23;20185;-84
2022/03/18 06:39:25;;;;;;;60.20;38.90;;;;;;;;;;6192977;23;20624;-84
2022/03/18 06:41:52;;;;;;;60.10;40.83;;;;;;;;;;6193636;23;20147;-84
2022/03/18 06:44:19;;;;;;;67.57;40.67;;;;;;;;;;6193084;23;20152;-83
2022/03/18 06:46:45;;;;;;;62.47;40.87;;;;;;;;;;6192590;23;20235;-84
2022/03/18 06:49:13;;;;;;;61.13;39.83;;;;;;;;;;6192763;23;20185;-84
2022/03/18 06:51:39;;;;;;;64.37;42.73;;;;;;;;;;6192429;23;20206;-84
2022/03/18 06:54:05;;;;;;;60.90;41.17;;;;;;;;;;6192722;23;20151;-84
2022/03/18 06:56:31;;;;;;;63.67;40.27;;;;;;;;;;6199054;23;20204;-83
2022/03/18 06:58:57;;;;;;;64.10;42.23;;;;;;;;;;6201660;23;20151;-83
2022/03/18 07:01:23;;;;;;;64.30;40.77;;;;;;;;;;6195832;23;20227;-86
2022/03/18 07:03:49;;;;;;;65.80;43.17;;;;;;;;;;6191678;23;20151;-84
2022/03/18 07:06:15;;;;;;;65.57;42.77;;;;;;;;;;6192121;23;20151;-84
2022/03/18 07:08:41;;;;;;;65.33;42.53;;;;;;;;;;6192223;23;20167;-84
2022/03/18 07:11:08;;;;;;;67.23;44.03;;;;;;;;;;6192131;23;20148;-84
2022/03/18 07:13:34;;;;;;;69.27;44.13;;;;;;;;;;6192200;23;20494;-83
2022/03/18 07:17:55;;;;;;;67.23;43.70;;;;;;;;;;6191073;23;20143;-83
2022/03/18 07:18:46;;;;;;;67.93;41.00;;;;;;;;;;6191604;23;20168;-83
2022/03/18 07:21:12;;;;;;;64.90;41.80;;;;;;;;;;6190557;23;20162;-84
2022/03/18 07:23:38;;;;;;;63.67;43.53;;;;;;;;;;6191541;23;20228;-84
2022/03/18 07:26:04;;;;;;;72.73;44.37;;;;;;;;;;6192071;23;20161;-85
2022/03/18 07:28:30;;;;;;;69.70;44.93;;;;;;;;;;6189881;23;20625;-85
2022/03/18 07:30:56;;;;;;;72.10;45.67;;;;;;;;;;6192562;23;20199;-83
2022/03/18 07:33:22;;;;;;;72.97;46.60;;;;;;;;;;6192250;23;20154;-86
2022/03/18 07:35:48;;;;;;;72.27;45.93;;;;;;;;;;6192418;23;20520;-84
2022/03/18 07:38:14;;;;;;;72.97;46.93;;;;;;;;;;6190251;23;20655;-84
2022/03/18 07:40:40;;;;;;;69.70;45.77;;;;;;;;;;6190653;23;20152;-85
2022/03/18 07:43:08;;;;;;;72.33;46.60;;;;;;;;;;6190381;23;20151;-83
2022/03/18 07:45:35;;;;;;;72.07;46.70;;;;;;;;;;6191577;23;20144;-82
2022/03/18 07:48:02;;;;;;;73.90;46.63;;;;;;;;;;6190497;23;20186;-84
2022/03/18 07:50:29;;;;;;;78.37;48.27;;;;;;;;;;6191461;23;20159;-84
2022/03/18 07:52:59;;;;;;;74.03;48.07;;;;;;;;;;6191651;23;20502;-84
2022/03/18 07:55:26;;;;;;;73.43;46.73;;;;;;;;;;6192179;23;20171;-84
2022/03/18 07:57:52;;;;;;;76.73;47.33;;;;;;;;;;6189045;23;20190;-84
2022/03/18 08:00:18;;;;;;;74.23;47.40;;;;;;;;;;6191550;23;20488;-84
2022/03/18 08:02:45;;;;;;;79.20;47.97;;;;;;;;;;6191070;23;20147;-84
2022/03/18 08:05:11;;;;;;;71.77;46.40;;;;;;;;;;6189938;23;20155;-84
2022/03/18 08:07:38;;;;;;;73.60;47.00;;;;;;;;;;6189212;23;20177;-82
2022/03/18 08:10:05;;;;;;;78.13;47.83;;;;;;;;;;6190467;23;20238;-84
2022/03/18 08:12:31;;;;;;;73.67;47.57;;;;;;;;;;6190733;23;20166;-83
2022/03/18 08:14:58;;;;;;;74.63;47.13;;;;;;;;;;6188557;23;20214;-82
2022/03/18 08:17:25;;;;;;;76.30;48.20;;;;;;;;;;6189327;23;20185;-81
2022/03/18 08:19:51;;;;;;;76.90;47.40;;;;;;;;;;6188316;23;20154;-83
2022/03/18 08:22:20;;;;;;;77.17;47.60;;;;;;;;;;6200677;23;20157;-82
2022/03/18 08:24:46;;;;;;;70.40;47.10;;;;;;;;;;6202210;23;20176;-82
2022/03/18 08:27:12;;;;;;;77.10;46.83;;;;;;;;;;6193561;23;20177;-83
2022/03/18 08:29:38;;;;;;;73.47;47.17;;;;;;;;;;6190771;23;20175;-82
2022/03/18 08:32:08;;;;;;;77.27;48.83;;;;;;;;;;6190894;23;20166;-82
2022/03/18 08:34:34;;;;;;;77.77;48.53;;;;;;;;;;6193240;23;20469;-81
2022/03/18 08:37:00;;;;;;;79.47;47.37;;;;;;;;;;6192800;23;20182;-83
2022/03/18 08:39:26;;;;;;;79.73;48.80;;;;;;;;;;6193317;23;20147;-82
2022/03/18 08:41:52;;;;;;;78.53;48.57;;;;;;;;;;6190882;23;20161;-82
2022/03/18 08:44:19;;;;;;;75.27;47.77;;;;;;;;;;6190629;23;20232;-82
2022/03/18 08:46:49;;;;;;;81.50;47.77;;;;;;;;;;6191904;23;20181;-83
2022/03/18 08:49:15;;;;;;;82.07;48.40;;;;;;;;;;6190523;23;20229;-82
2022/03/18 08:51:41;;;;;;;80.90;50.27;;;;;;;;;;6192227;23;20231;-83
2022/03/18 08:54:07;;;;;;;81.70;47.77;;;;;;;;;;6190670;23;20156;-82
2022/03/18 08:56:33;;;;;;;74.73;48.07;;;;;;;;;;6187205;23;20212;-83
2022/03/18 08:59:03;;;;;;;75.67;46.70;;;;;;;;;;6191901;23;20224;-81
2022/03/18 09:01:29;;;;;;;76.23;47.87;;;;;;;;;;6189412;23;20596;-82
2022/03/18 09:03:55;;;;;;;79.90;47.80;;;;;;;;;;6189607;23;20164;-85
2022/03/18 09:06:21;;;;;;;69.67;44.23;;;;;;;;;;6190360;23;20457;-82
2022/03/18 09:08:47;;;;;;;73.73;45.50;;;;;;;;;;6201108;23;20157;-82
2022/03/18 09:11:13;;;;;;;73.50;46.43;;;;;;;;;;6202330;23;20153;-83
2022/03/18 09:13:39;;;;;;;68.80;43.47;;;;;;;;;;6193028;23;20233;-83
2022/03/18 09:16:05;;;;;;;77.90;44.77;;;;;;;;;;6193116;23;20147;-84
2022/03/18 09:18:31;;;;;;;68.03;41.77;;;;;;;;;;6192961;23;20215;-83
2022/03/18 09:20:58;;;;;;;73.87;44.70;;;;;;;;;;6192605;23;20144;-83
2022/03/18 09:23:24;;;;;;;67.50;43.20;;;;;;;;;;6190368;23;20477;-82
2022/03/18 09:25:51;;;;;;;65.10;41.80;;;;;;;;;;6192026;23;20146;-82
2022/03/18 09:28:17;;;;;;;69.33;43.07;;;;;;;;;;6191096;23;20171;-82
2022/03/18 09:30:43;;;;;;;66.23;41.03;;;;;;;;;;6192564;23;20158;-82
2022/03/18 09:33:09;;;;;;;65.13;41.17;;;;;;;;;;6190640;23;20159;-83
2022/03/18 09:35:36;;;;;;;67.47;42.07;;;;;;;;;;6190707;23;20155;-82
2022/03/18 09:38:02;;;;;;;67.97;40.60;;;;;;;;;;6190184;23;20277;-83
2022/03/18 09:40:28;;;;;;;65.33;42.10;;;;;;;;;;6192134;23;20154;-83
2022/03/18 09:43:01;;;;;;;65.57;39.77;;;;;;;;;;6189953;23;20614;-83
2022/03/18 09:45:33;;;;;;;65.07;40.07;;;;;;;;;;6191342;23;20202;-83
2022/03/18 09:47:59;;;;;;;63.23;41.73;;;;;;;;;;6189624;23;20658;-82
2022/03/18 09:50:25;;;;;;;64.93;40.90;;;;;;;;;;6191745;23;20491;-83
2022/03/18 09:52:52;;;;;;;63.07;40.93;;;;;;;;;;6192212;23;20490;-83
2022/03/18 09:55:18;;;;;;;62.73;39.40;;;;;;;;;;6191960;23;20494;-82
2022/03/18 09:57:44;;;;;;;63.97;40.43;;;;;;;;;;6191056;23;20188;-81
2022/03/18 10:00:10;;;;;;;57.70;37.50;;;;;;;;;;6191714;23;20532;-82
2022/03/18 10:02:36;;;;;;;59.70;38.80;;;;;;;;;;6190874;23;20156;-82
2022/03/18 10:05:22;;;;;;;58.73;37.40;;;;;;;;;;6191892;23;20155;-82
2022/03/18 10:07:56;;;;;;;58.00;38.17;;;;;;;;;;6189129;23;20175;-82
2022/03/18 10:10:23;;;;;;;59.83;37.60;;;;;;;;;;6191889;23;20224;-82
2022/03/18 10:12:50;;;;;;;63.37;38.87;;;;;;;;;;6191602;23;20240;-82
2022/03/18 10:15:22;;;;;;;56.73;38.00;;;;;;;;;;6190509;23;20214;-82
2022/03/18 10:17:49;;;;;;;55.33;36.53;;;;;;;;;;6189242;23;20187;-81
2022/03/18 10:20:24;;;;;;;56.23;36.37;;;;;;;;;;6188386;23;20152;-80
2022/03/18 10:22:50;;;;;;;57.23;36.77;;;;;;;;;;6188623;23;20150;-81
2022/03/18 10:25:36;;;;;;;53.23;34.37;;;;;;;;;;6188832;23;20493;-81
2022/03/18 10:28:03;;;;;;;52.80;35.70;;;;;;;;;;6189234;23;20197;-81
2022/03/18 10:30:29;;;;;;;50.03;35.37;;;;;;;;;;6188085;23;20496;-81
2022/03/18 10:32:55;;;;;;;54.43;36.10;;;;;;;;;;6189744;23;20158;-82
2022/03/18 10:38:35;;;;;;;52.43;35.57;;;;;;;;;;6188973;23;20251;-81
2022/03/18 10:41:09;;;;;;;46.33;32.87;;;;;;;;;;6189562;23;20149;-80
2022/03/18 10:43:54;;;;;;;52.17;34.67;;;;;;;;;;6187726;23;20184;-82
2022/03/18 10:46:20;;;;;;;48.30;32.87;;;;;;;;;;6189332;23;20175;-82
2022/03/18 10:49:03;;;;;;;47.23;32.53;;;;;;;;;;6188656;23;20163;-81
2022/03/18 10:51:30;;;;;;;45.63;32.60;;;;;;;;;;6188394;23;20208;-82
2022/03/18 10:53:57;;;;;;;48.13;32.23;;;;;;;;;;6189136;23;20156;-82
2022/03/18 10:56:23;;;;;;;48.17;32.63;;;;;;;;;;6187474;23;20169;-81
2022/03/18 10:58:49;;;;;;;45.80;32.57;;;;;;;;;;6188713;23;20222;-81
2022/03/18 11:01:16;;;;;;;53.40;34.37;;;;;;;;;;6188466;23;20609;-82
2022/03/18 11:03:44;;;;;;;47.57;32.23;;;;;;;;;;6187141;23;20492;-81
2022/03/18 11:06:11;;;;;;;43.87;32.50;;;;;;;;;;6189115;23;20152;-81
2022/03/18 11:08:47;;;;;;;46.13;32.03;;;;;;;;;;6189006;23;20172;-81
2022/03/18 11:11:18;;;;;;;47.43;31.20;;;;;;;;;;6188021;23;20535;-83
2022/03/18 11:13:51;;;;;;;44.43;30.87;;;;;;;;;;6187155;23;20154;-81
2022/03/18 11:16:18;;;;;;;48.43;31.93;;;;;;;;;;6187758;23;20244;-83
2022/03/18 11:18:45;;;;;;;45.33;31.20;;;;;;;;;;6188911;23;20181;-82
2022/03/18 11:21:11;;;;;;;43.77;31.77;;;;;;;;;;6186546;23;20161;-82
2022/03/18 11:23:40;;;;;;;41.23;29.77;;;;;;;;;;6187570;23;20148;-81
2022/03/18 11:26:06;;;;;;;46.00;32.13;;;;;;;;;;6187210;23;20687;-83
2022/03/18 11:28:32;;;;;;;40.23;29.00;;;;;;;;;;6185270;23;20170;-81
2022/03/18 11:31:05;;;;;;;44.20;30.77;;;;;;;;;;6187691;23;20173;-81
2022/03/18 11:33:32;;;;;;;41.97;29.70;;;;;;;;;;6188169;23;20153;-82
2022/03/18 11:36:00;;;;;;;44.60;31.10;;;;;;;;;;6187716;23;20579;-80
2022/03/18 11:38:31;;;;;;;44.80;30.40;;;;;;;;;;6185078;23;20307;-82
2022/03/18 11:40:58;;;;;;;43.90;29.97;;;;;;;;;;6188711;23;20225;-82
2022/03/18 11:43:31;;;;;;;45.43;29.80;;;;;;;;;;6189473;23;20155;-82
2022/03/18 11:46:16;;;;;;;43.60;28.40;;;;;;;;;;6188481;23;20232;-80
2022/03/18 11:48:46;;;;;;;47.23;30.50;;;;;;;;;;6187978;23;20192;-83
2022/03/18 11:51:29;;;;;;;42.00;29.43;;;;;;;;;;6187623;23;20183;-82
2022/03/18 11:54:00;;;;;;;41.10;28.23;;;;;;;;;;6188036;23;20538;-82
2022/03/18 11:56:41;;;;;;;40.23;27.70;;;;;;;;;;6187013;23;20173;-81
2022/03/18 11:59:25;;;;;;;37.97;27.60;;;;;;;;;;6188972;23;20145;-81
2022/03/18 12:01:51;;;;;;;41.40;29.27;;;;;;;;;;6201464;23;20204;-82
2022/03/18 12:04:36;;;;;;;43.67;29.63;;;;;;;;;;6198692;23;20156;-82
2022/03/18 12:07:12;;;;;;;47.07;29.50;;;;;;;;;;6186773;23;20176;-81
2022/03/18 12:10:07;;;;;;;44.03;29.40;;;;;;;;;;6188852;23;20231;-81
2022/03/18 12:12:38;;;;;;;38.80;27.63;;;;;;;;;;6169690;23;20546;-83
2022/03/18 12:15:09;;;;;;;41.10;28.57;;;;;;;;;;6188092;23;20195;-81
2022/03/18 12:17:45;;;;;;;40.87;29.63;;;;;;;;;;6187511;23;20219;-81
2022/03/18 12:20:17;;;;;;;41.27;28.67;;;;;;;;;;6187497;23;20462;-81
2022/03/18 12:22:43;;;;;;;40.23;30.17;;;;;;;;;;6187926;23;20137;-79
2022/03/18 12:25:09;;;;;;;38.53;29.20;;;;;;;;;;6187687;23;20147;-81
2022/03/18 12:27:38;;;;;;;44.30;29.20;;;;;;;;;;6188350;23;20185;-81
2022/03/18 12:30:05;;;;;;;43.80;29.90;;;;;;;;;;6187671;23;20220;-84
2022/03/18 12:32:32;;;;;;;44.17;29.43;;;;;;;;;;6187440;23;20154;-83
2022/03/18 12:35:00;;;;;;;42.10;29.40;;;;;;;;;;6189121;23;20154;-84
2022/03/18 12:37:30;;;;;;;42.43;29.47;;;;;;;;;;6188210;23;20228;-83
2022/03/18 12:40:05;;;;;;;41.83;29.30;;;;;;;;;;6188399;23;20156;-80
2022/03/18 12:42:32;;;;;;;43.37;30.40;;;;;;;;;;6189017;23;20173;-82
2022/03/18 12:45:02;;;;;;;46.73;30.30;;;;;;;;;;6187789;23;20203;-83
2022/03/18 12:47:31;;;;;;;40.93;28.97;;;;;;;;;;6187923;23;20189;-82
2022/03/18 12:49:58;;;;;;;40.07;29.97;;;;;;;;;;6188450;23;20180;-83
2022/03/18 12:52:24;;;;;;;42.73;30.07;;;;;;;;;;6188415;23;20151;-82
2022/03/18 12:55:06;;;;;;;41.70;29.87;;;;;;;;;;6189331;23;20238;-82
2022/03/18 12:57:33;;;;;;;39.83;29.83;;;;;;;;;;6190211;23;20186;-84
2022/03/18 12:59:59;;;;;;;43.33;29.97;;;;;;;;;;6188621;23;20147;-83
2022/03/18 13:02:25;;;;;;;39.93;29.47;;;;;;;;;;6188553;23;20216;-83
2022/03/18 13:05:02;;;;;;;39.73;29.83;;;;;;;;;;6190362;23;20146;-83
2022/03/18 13:07:28;;;;;;;44.40;30.00;;;;;;;;;;6191168;23;20181;-83
2022/03/18 13:09:55;;;;;;;42.57;30.43;;;;;;;;;;6188911;23;20148;-83
2022/03/18 13:12:25;;;;;;;41.70;30.20;;;;;;;;;;6188538;23;20162;-84
2022/03/18 13:14:54;;;;;;;40.43;28.90;;;;;;;;;;6188461;23;20162;-85
2022/03/18 13:17:34;;;;;;;42.27;31.50;;;;;;;;;;6189914;23;20227;-86
2022/03/18 13:20:00;;;;;;;45.37;30.83;;;;;;;;;;6191940;23;20149;-84
2022/03/18 13:22:28;;;;;;;42.60;30.37;;;;;;;;;;6190725;23;20156;-84
2022/03/18 13:24:55;;;;;;;42.77;30.17;;;;;;;;;;6191447;23;20154;-82
2022/03/18 13:27:22;;;;;;;41.13;30.33;;;;;;;;;;6191721;23;20174;-84
2022/03/18 13:32:53;;;;;;;43.50;30.97;;;;;;;;;;6190915;23;20218;-83
2022/03/18 13:35:20;;;;;;;42.77;29.83;;;;;;;;;;6191424;23;20141;-85
2022/03/18 13:38:05;;;;;;;42.83;29.70;;;;;;;;;;6192079;23;20186;-83
2022/03/18 13:40:32;;;;;;;42.77;32.03;;;;;;;;;;6191525;23;20146;-83
2022/03/18 13:43:00;;;;;;;42.43;30.90;;;;;;;;;;6190122;23;20173;-86
2022/03/18 13:45:28;;;;;;;45.43;31.67;;;;;;;;;;6191599;23;20181;-86
2022/03/18 13:47:55;;;;;;;41.87;30.60;;;;;;;;;;6190532;23;20193;-86
2022/03/18 13:50:21;;;;;;;40.97;29.07;;;;;;;;;;6191982;23;20153;-83
2022/03/18 13:52:48;;;;;;;42.13;30.77;;;;;;;;;;6189985;23;20151;-82
2022/03/18 13:55:30;;;;;;;39.80;30.43;;;;;;;;;;6190029;23;20495;-83
2022/03/18 13:57:56;;;;;;;43.67;32.00;;;;;;;;;;6189805;23;20176;-81
2022/03/18 14:00:34;;;;;;;41.63;30.50;;;;;;;;;;6188750;23;20228;-82
2022/03/18 14:03:02;;;;;;;40.50;30.77;;;;;;;;;;6189979;23;20145;-83
2022/03/18 14:05:28;;;;;;;41.47;30.93;;;;;;;;;;6191140;23;20160;-82
2022/03/18 14:07:54;;;;;;;45.20;31.43;;;;;;;;;;6190549;23;20170;-82
2022/03/18 14:10:20;;;;;;;40.87;29.03;;;;;;;;;;6190082;23;20185;-81
2022/03/18 14:12:59;;;;;;;40.87;30.93;;;;;;;;;;6190095;23;20160;-83
2022/03/18 14:15:31;;;;;;;44.53;29.90;;;;;;;;;;6190199;23;20635;-82
2022/03/18 14:18:05;;;;;;;42.80;30.40;;;;;;;;;;6190649;23;20622;-83
2022/03/18 14:20:34;;;;;;;46.10;31.37;;;;;;;;;;6191432;23;20148;-82
2022/03/18 14:23:15;;;;;;;43.83;32.67;;;;;;;;;;6191671;23;20489;-83
2022/03/18 14:25:41;;;;;;;41.67;30.77;;;;;;;;;;6191188;23;20133;-82
2022/03/18 14:28:09;;;;;;;43.40;30.93;;;;;;;;;;6189544;23;20225;-83
2022/03/18 14:30:35;;;;;;;42.93;30.03;;;;;;;;;;6189170;23;20653;-82
2022/03/18 14:33:02;;;;;;;45.63;31.80;;;;;;;;;;6189080;23;20894;-82
2022/03/18 14:35:28;;;;;;;42.13;30.70;;;;;;;;;;6190217;23;20481;-81
2022/03/18 14:37:54;;;;;;;42.67;29.83;;;;;;;;;;6189526;23;20281;-81
2022/03/18 14:40:21;;;;;;;39.60;30.13;;;;;;;;;;6189933;23;20289;-81